sensor_id;sensor_type;location;lat;lon;timestamp;pressure;altitude;pressure_sealevel;temperature;humidity
48527;BME280;34317;51.660;5.824;2024-01-06T00:00:40;100235.53;;;10.54;65.79
48527;BME280;34317;51.660;5.824;2024-01-06T00:03:07;100241.69;;;10.55;65.96
48527;BME280;34317;51.660;5.824;2024-01-06T00:05:35;100245.22;;;10.55;65.79
48527;BME280;34317;51.660;5.824;2024-01-06T00:08:02;100240.00;;;10.54;65.78
48527;BME280;34317;51.660;5.824;2024-01-06T00:10:29;100249.75;;;10.53;65.88
48527;BME280;34317;51.660;5.824;2024-01-06T00:12:57;100254.16;;;10.52;65.88
48527;BME280;34317;51.660;5.824;2024-01-06T00:15:24;100255.97;;;10.52;65.92
48527;BME280;34317;51.660;5.824;2024-01-06T00:17:52;100256.91;;;10.51;65.79
48527;BME280;34317;51.660;5.824;2024-01-06T00:20:19;100253.47;;;10.49;65.73
48527;BME280;34317;51.660;5.824;2024-01-06T00:22:48;100261.59;;;10.46;65.62
48527;BME280;34317;51.660;5.824;2024-01-06T00:25:15;100262.59;;;10.43;65.72
48527;BME280;34317;51.660;5.824;2024-01-06T00:27:42;100260.97;;;10.41;65.79
48527;BME280;34317;51.660;5.824;2024-01-06T00:30:10;100269.88;;;10.40;65.67
48527;BME280;34317;51.660;5.824;2024-01-06T00:32:37;100270.03;;;10.37;65.89
48527;BME280;34317;51.660;5.824;2024-01-06T00:35:05;100271.81;;;10.36;65.61
48527;BME280;34317;51.660;5.824;2024-01-06T00:37:32;100265.75;;;10.34;65.72
48527;BME280;34317;51.660;5.824;2024-01-06T00:40:00;100271.22;;;10.31;65.50
48527;BME280;34317;51.660;5.824;2024-01-06T00:42:27;100270.47;;;10.27;65.61
48527;BME280;34317;51.660;5.824;2024-01-06T00:44:54;100275.78;;;10.27;65.65
48527;BME280;34317;51.660;5.824;2024-01-06T00:47:22;100286.50;;;10.24;65.68
48527;BME280;34317;51.660;5.824;2024-01-06T00:49:51;100281.41;;;10.21;65.68
48527;BME280;34317;51.660;5.824;2024-01-06T00:52:18;100286.84;;;10.18;65.43
48527;BME280;34317;51.660;5.824;2024-01-06T00:54:45;100287.00;;;10.15;65.29
48527;BME280;34317;51.660;5.824;2024-01-06T00:57:14;100291.63;;;10.11;65.37
48527;BME280;34317;51.660;5.824;2024-01-06T00:59:41;100289.19;;;10.07;65.21
48527;BME280;34317;51.660;5.824;2024-01-06T01:02:09;100289.34;;;10.04;65.32
48527;BME280;34317;51.660;5.824;2024-01-06T01:04:36;100293.09;;;10.00;65.45
48527;BME280;34317;51.660;5.824;2024-01-06T01:07:03;100294.97;;;9.98;65.24
48527;BME280;34317;51.660;5.824;2024-01-06T01:09:32;100290.75;;;9.93;65.46
48527;BME280;34317;51.660;5.824;2024-01-06T01:11:59;100296.31;;;9.89;65.29
48527;BME280;34317;51.660;5.824;2024-01-06T01:14:27;100307.88;;;9.86;65.24
48527;BME280;34317;51.660;5.824;2024-01-06T01:16:54;100308.91;;;9.84;65.37
48527;BME280;34317;51.660;5.824;2024-01-06T01:19:22;100313.47;;;9.80;65.09
48527;BME280;34317;51.660;5.824;2024-01-06T01:21:49;100315.34;;;9.78;65.18
48527;BME280;34317;51.660;5.824;2024-01-06T01:24:16;100311.94;;;9.76;65.19
48527;BME280;34317;51.660;5.824;2024-01-06T01:26:44;100319.94;;;9.74;65.32
48527;BME280;34317;51.660;5.824;2024-01-06T01:29:11;100324.38;;;9.74;65.11
48527;BME280;34317;51.660;5.824;2024-01-06T01:31:38;100332.38;;;9.72;65.09
48527;BME280;34317;51.660;5.824;2024-01-06T01:34:06;100335.09;;;9.71;65.17
48527;BME280;34317;51.660;5.824;2024-01-06T01:36:33;100336.13;;;9.68;65.07
48527;BME280;34317;51.660;5.824;2024-01-06T01:39:01;100339.75;;;9.66;65.05
48527;BME280;34317;51.660;5.824;2024-01-06T01:41:29;100342.38;;;9.66;65.02
48527;BME280;34317;51.660;5.824;2024-01-06T01:43:56;100337.28;;;9.63;64.88
48527;BME280;34317;51.660;5.824;2024-01-06T01:46:28;100342.56;;;9.63;64.68
48527;BME280;34317;51.660;5.824;2024-01-06T01:48:57;100344.44;;;9.61;64.91
48527;BME280;34317;51.660;5.824;2024-01-06T01:51:28;100348.84;;;9.60;64.81
48527;BME280;34317;51.660;5.824;2024-01-06T01:53:59;100349.84;;;9.58;64.73
48527;BME280;34317;51.660;5.824;2024-01-06T01:56:27;100355.28;;;9.54;64.73
48527;BME280;34317;51.660;5.824;2024-01-06T01:58:55;100355.44;;;9.51;64.60
48527;BME280;34317;51.660;5.824;2024-01-06T02:01:25;100362.72;;;9.46;64.66
48527;BME280;34317;51.660;5.824;2024-01-06T02:03:52;100369.03;;;9.44;64.80
48527;BME280;34317;51.660;5.824;2024-01-06T02:06:20;100364.91;;;9.38;64.68
48527;BME280;34317;51.660;5.824;2024-01-06T02:08:47;100368.59;;;9.34;64.98
48527;BME280;34317;51.660;5.824;2024-01-06T02:11:16;100368.75;;;9.31;64.42
48527;BME280;34317;51.660;5.824;2024-01-06T02:13:44;100375.19;;;9.25;64.40
48527;BME280;34317;51.660;5.824;2024-01-06T02:16:11;100381.47;;;9.23;64.55
48527;BME280;34317;51.660;5.824;2024-01-06T02:18:38;100377.19;;;9.20;64.64
48527;BME280;34317;51.660;5.824;2024-01-06T02:21:06;100386.91;;;9.20;64.60
48527;BME280;34317;51.660;5.824;2024-01-06T02:23:35;100390.63;;;9.15;64.30
48527;BME280;34317;51.660;5.824;2024-01-06T02:26:03;100395.09;;;9.13;64.53
48527;BME280;34317;51.660;5.824;2024-01-06T02:28:30;100394.31;;;9.11;64.53
48527;BME280;34317;51.660;5.824;2024-01-06T02:30:58;100396.16;;;9.09;64.15
48527;BME280;34317;51.660;5.824;2024-01-06T02:33:25;100405.03;;;9.08;64.88
48527;BME280;34317;51.660;5.824;2024-01-06T02:35:53;100406.00;;;9.06;64.28
48527;BME280;34317;51.660;5.824;2024-01-06T02:38:20;100419.31;;;9.04;64.30
48527;BME280;34317;51.660;5.824;2024-01-06T02:40:47;100415.88;;;9.02;64.63
48527;BME280;34317;51.660;5.824;2024-01-06T02:43:14;100421.31;;;8.99;64.52
48527;BME280;34317;51.660;5.824;2024-01-06T02:45:42;100430.13;;;8.98;64.36
48527;BME280;34317;51.660;5.824;2024-01-06T02:48:09;100423.16;;;8.97;64.49
48527;BME280;34317;51.660;5.824;2024-01-06T02:50:36;100439.13;;;8.94;64.39
48527;BME280;34317;51.660;5.824;2024-01-06T02:53:04;100441.84;;;8.92;64.50
48527;BME280;34317;51.660;5.824;2024-01-06T02:55:32;100447.19;;;8.91;64.12
48527;BME280;34317;51.660;5.824;2024-01-06T02:57:59;100442.84;;;8.90;64.15
48527;BME280;34317;51.660;5.824;2024-01-06T03:00:27;100454.25;;;8.90;64.07
48527;BME280;34317;51.660;5.824;2024-01-06T03:02:54;100453.41;;;8.90;64.05
48527;BME280;34317;51.660;5.824;2024-01-06T03:05:21;100456.97;;;8.89;64.28
48527;BME280;34317;51.660;5.824;2024-01-06T03:07:49;100462.25;;;8.89;64.00
48527;BME280;34317;51.660;5.824;2024-01-06T03:10:16;100460.47;;;8.89;64.16
48527;BME280;34317;51.660;5.824;2024-01-06T03:12:43;100467.53;;;8.89;63.83
48527;BME280;34317;51.660;5.824;2024-01-06T03:15:11;100460.53;;;8.88;63.79
48527;BME280;34317;51.660;5.824;2024-01-06T03:17:38;100464.09;;;8.87;63.80
48527;BME280;34317;51.660;5.824;2024-01-06T03:20:06;100474.66;;;8.87;64.15
48527;BME280;34317;51.660;5.824;2024-01-06T03:22:34;100469.38;;;8.87;63.95
48527;BME280;34317;51.660;5.824;2024-01-06T03:25:01;100467.69;;;8.86;63.63
48527;BME280;34317;51.660;5.824;2024-01-06T03:27:30;100472.97;;;8.86;63.85
48527;BME280;34317;51.660;5.824;2024-01-06T03:29:57;100465.94;;;8.85;63.83
48527;BME280;34317;51.660;5.824;2024-01-06T03:32:24;100475.66;;;8.84;63.81
48527;BME280;34317;51.660;5.824;2024-01-06T03:34:52;100480.09;;;8.84;63.90
48527;BME280;34317;51.660;5.824;2024-01-06T03:37:19;100475.72;;;8.83;63.71
48527;BME280;34317;51.660;5.824;2024-01-06T03:39:49;100488.94;;;8.83;64.01
48527;BME280;34317;51.660;5.824;2024-01-06T03:42:16;100489.03;;;8.80;63.83
48527;BME280;34317;51.660;5.824;2024-01-06T03:44:44;100485.78;;;8.74;63.52
48527;BME280;34317;51.660;5.824;2024-01-06T03:47:12;100501.72;;;8.71;63.71
48527;BME280;34317;51.660;5.824;2024-01-06T03:49:39;100496.59;;;8.68;63.67
48527;BME280;34317;51.660;5.824;2024-01-06T03:52:07;100503.69;;;8.66;63.89
48527;BME280;34317;51.660;5.824;2024-01-06T03:54:34;100503.84;;;8.63;63.88
48527;BME280;34317;51.660;5.824;2024-01-06T03:57:02;100502.28;;;8.59;64.12
48527;BME280;34317;51.660;5.824;2024-01-06T03:59:29;100507.66;;;8.56;63.88
48527;BME280;34317;51.660;5.824;2024-01-06T04:01:56;100506.09;;;8.52;63.74
48527;BME280;34317;51.660;5.824;2024-01-06T04:04:24;100511.47;;;8.49;64.01
48527;BME280;34317;51.660;5.824;2024-01-06T04:06:51;100513.31;;;8.47;64.45
48527;BME280;34317;51.660;5.824;2024-01-06T04:09:19;100523.03;;;8.46;63.81
48527;BME280;34317;51.660;5.824;2024-01-06T04:11:46;100525.72;;;8.45;63.85
48527;BME280;34317;51.660;5.824;2024-01-06T04:14:14;100534.56;;;8.44;64.06
48527;BME280;34317;51.660;5.824;2024-01-06T04:16:42;100524.00;;;8.44;63.89
48527;BME280;34317;51.660;5.824;2024-01-06T04:19:09;100525.84;;;8.42;63.93
48527;BME280;34317;51.660;5.824;2024-01-06T04:21:40;100532.94;;;8.39;63.95
48527;BME280;34317;51.660;5.824;2024-01-06T04:24:07;100532.94;;;8.39;64.15
48527;BME280;34317;51.660;5.824;2024-01-06T04:26:35;100538.22;;;8.39;64.13
48527;BME280;34317;51.660;5.824;2024-01-06T04:29:03;100538.22;;;8.39;64.07
48527;BME280;34317;51.660;5.824;2024-01-06T04:31:30;100538.22;;;8.39;64.32
48527;BME280;34317;51.660;5.824;2024-01-06T04:33:58;100539.94;;;8.41;63.82
48527;BME280;34317;51.660;5.824;2024-01-06T04:36:25;100545.22;;;8.41;64.10
48527;BME280;34317;51.660;5.824;2024-01-06T04:38:53;100548.78;;;8.39;63.79
48527;BME280;34317;51.660;5.824;2024-01-06T04:41:21;100548.78;;;8.39;63.99
48527;BME280;34317;51.660;5.824;2024-01-06T04:43:48;100555.00;;;8.38;64.20
48527;BME280;34317;51.660;5.824;2024-01-06T04:46:15;100559.31;;;8.39;63.96
48527;BME280;34317;51.660;5.824;2024-01-06T04:48:43;100555.78;;;8.41;64.08
48527;BME280;34317;51.660;5.824;2024-01-06T04:51:11;100563.75;;;8.39;64.12
48527;BME280;34317;51.660;5.824;2024-01-06T04:53:38;100561.06;;;8.41;64.14
48527;BME280;34317;51.660;5.824;2024-01-06T04:56:06;100561.06;;;8.41;63.94
48527;BME280;34317;51.660;5.824;2024-01-06T04:58:33;100564.53;;;8.43;63.94
48527;BME280;34317;51.660;5.824;2024-01-06T05:01:02;100569.81;;;8.43;64.00
48527;BME280;34317;51.660;5.824;2024-01-06T05:03:30;100571.50;;;8.44;63.99
48527;BME280;34317;51.660;5.824;2024-01-06T05:05:57;100570.59;;;8.45;64.05
48527;BME280;34317;51.660;5.824;2024-01-06T05:08:24;100574.97;;;8.46;64.06
48527;BME280;34317;51.660;5.824;2024-01-06T05:10:52;100578.50;;;8.45;64.03
48527;BME280;34317;51.660;5.824;2024-01-06T05:13:20;100582.06;;;8.44;64.08
48527;BME280;34317;51.660;5.824;2024-01-06T05:15:48;100587.34;;;8.44;64.03
48527;BME280;34317;51.660;5.824;2024-01-06T05:18:16;100583.00;;;8.43;64.02
48527;BME280;34317;51.660;5.824;2024-01-06T05:20:44;100587.34;;;8.44;64.08
48527;BME280;34317;51.660;5.824;2024-01-06T05:23:11;100590.91;;;8.43;63.96
48527;BME280;34317;51.660;5.824;2024-01-06T05:25:39;100587.34;;;8.44;63.88
48527;BME280;34317;51.660;5.824;2024-01-06T05:28:06;100597.78;;;8.47;63.94
48527;BME280;34317;51.660;5.824;2024-01-06T05:30:34;100594.25;;;8.48;63.91
48527;BME280;34317;51.660;5.824;2024-01-06T05:33:01;100598.63;;;8.47;64.18
48527;BME280;34317;51.660;5.824;2024-01-06T05:35:29;100597.66;;;8.50;63.98
48527;BME280;34317;51.660;5.824;2024-01-06T05:37:57;100595.81;;;8.52;64.03
48527;BME280;34317;51.660;5.824;2024-01-06T05:40:24;100597.53;;;8.53;63.89
48527;BME280;34317;51.660;5.824;2024-01-06T05:42:51;100597.53;;;8.53;63.92
48527;BME280;34317;51.660;5.824;2024-01-06T05:45:22;100603.75;;;8.52;63.94
48527;BME280;34317;51.660;5.824;2024-01-06T05:47:51;100607.22;;;8.52;63.99
48527;BME280;34317;51.660;5.824;2024-01-06T05:50:19;100601.16;;;8.50;63.93
48527;BME280;34317;51.660;5.824;2024-01-06T05:52:46;100615.34;;;8.48;63.77
48527;BME280;34317;51.660;5.824;2024-01-06T05:55:15;100624.28;;;8.44;63.88
48527;BME280;34317;51.660;5.824;2024-01-06T05:57:42;100629.78;;;8.37;63.71
48527;BME280;34317;51.660;5.824;2024-01-06T06:00:10;100626.47;;;8.32;63.88
48527;BME280;34317;51.660;5.824;2024-01-06T06:02:41;100633.56;;;8.30;63.79
48527;BME280;34317;51.660;5.824;2024-01-06T06:05:08;100637.16;;;8.29;63.91
48527;BME280;34317;51.660;5.824;2024-01-06T06:07:36;100628.44;;;8.27;63.78
48527;BME280;34317;51.660;5.824;2024-01-06T06:10:10;100645.16;;;8.26;63.86
48527;BME280;34317;51.660;5.824;2024-01-06T06:12:39;100644.38;;;8.24;63.90
48527;BME280;34317;51.660;5.824;2024-01-06T06:15:07;100649.66;;;8.24;64.09
48527;BME280;34317;51.660;5.824;2024-01-06T06:17:35;100650.63;;;8.22;63.61
48527;BME280;34317;51.660;5.824;2024-01-06T06:20:03;100658.59;;;8.20;63.90
48527;BME280;34317;51.660;5.824;2024-01-06T06:22:30;100658.59;;;8.20;64.11
48527;BME280;34317;51.660;5.824;2024-01-06T06:24:58;100663.88;;;8.20;64.03
48527;BME280;34317;51.660;5.824;2024-01-06T06:27:27;100665.72;;;8.18;63.95
48527;BME280;34317;51.660;5.824;2024-01-06T06:29:54;100669.25;;;8.17;63.72
48527;BME280;34317;51.660;5.824;2024-01-06T06:32:23;100672.84;;;8.16;64.04
48527;BME280;34317;51.660;5.824;2024-01-06T06:34:52;100681.66;;;8.15;63.79
48527;BME280;34317;51.660;5.824;2024-01-06T06:37:20;100683.50;;;8.13;64.06
48527;BME280;34317;51.660;5.824;2024-01-06T06:39:48;100686.13;;;8.13;64.06
48527;BME280;34317;51.660;5.824;2024-01-06T06:42:15;100693.19;;;8.12;63.91
48527;BME280;34317;51.660;5.824;2024-01-06T06:44:42;100690.59;;;8.11;63.87
48527;BME280;34317;51.660;5.824;2024-01-06T06:47:10;100699.56;;;8.07;63.81
48527;BME280;34317;51.660;5.824;2024-01-06T06:49:37;100704.88;;;8.05;63.67
48527;BME280;34317;51.660;5.824;2024-01-06T06:52:04;100712.91;;;8.02;63.90
48527;BME280;34317;51.660;5.824;2024-01-06T06:54:34;100708.59;;;7.99;63.55
48527;BME280;34317;51.660;5.824;2024-01-06T06:57:01;100724.53;;;7.96;64.01
48527;BME280;34317;51.660;5.824;2024-01-06T06:59:30;100727.28;;;7.93;63.70
48527;BME280;34317;51.660;5.824;2024-01-06T07:01:57;100737.94;;;7.90;63.86
48527;BME280;34317;51.660;5.824;2024-01-06T07:04:24;100736.34;;;7.86;63.99
48527;BME280;34317;51.660;5.824;2024-01-06T07:06:53;100744.34;;;7.83;63.93
48527;BME280;34317;51.660;5.824;2024-01-06T07:09:20;100737.47;;;7.79;63.70
48527;BME280;34317;51.660;5.824;2024-01-06T07:11:51;100748.09;;;7.76;63.86
48527;BME280;34317;51.660;5.824;2024-01-06T07:14:18;100751.75;;;7.72;63.59
48527;BME280;34317;51.660;5.824;2024-01-06T07:16:46;100755.44;;;7.68;63.70
48527;BME280;34317;51.660;5.824;2024-01-06T07:19:13;100762.63;;;7.63;63.73
48527;BME280;34317;51.660;5.824;2024-01-06T07:21:41;100769.72;;;7.60;63.94
48527;BME280;34317;51.660;5.824;2024-01-06T07:24:08;100768.09;;;7.56;63.71
48527;BME280;34317;51.660;5.824;2024-01-06T07:26:35;100773.47;;;7.53;63.85
48527;BME280;34317;51.660;5.824;2024-01-06T07:29:03;100782.31;;;7.52;63.58
48527;BME280;34317;51.660;5.824;2024-01-06T07:31:30;100782.41;;;7.49;63.89
48527;BME280;34317;51.660;5.824;2024-01-06T07:33:58;100785.97;;;7.48;63.70
48527;BME280;34317;51.660;5.824;2024-01-06T07:36:26;100791.31;;;7.45;63.58
48527;BME280;34317;51.660;5.824;2024-01-06T07:39:02;100789.63;;;7.44;63.88
48527;BME280;34317;51.660;5.824;2024-01-06T07:41:55;100792.34;;;7.41;63.86
48527;BME280;34317;51.660;5.824;2024-01-06T07:44:22;100795.06;;;7.38;63.82
48527;BME280;34317;51.660;5.824;2024-01-06T07:46:52;100799.56;;;7.34;63.78
48527;BME280;34317;51.660;5.824;2024-01-06T07:49:20;100801.44;;;7.31;63.57
48527;BME280;34317;51.660;5.824;2024-01-06T07:51:47;100809.34;;;7.31;63.85
48527;BME280;34317;51.660;5.824;2024-01-06T07:54:15;100814.72;;;7.28;64.05
48527;BME280;34317;51.660;5.824;2024-01-06T07:56:42;100817.41;;;7.26;63.91
48527;BME280;34317;51.660;5.824;2024-01-06T07:59:10;100818.38;;;7.24;63.74
48527;BME280;34317;51.660;5.824;2024-01-06T08:01:38;100818.38;;;7.24;63.74
48527;BME280;34317;51.660;5.824;2024-01-06T08:04:05;100825.47;;;7.21;63.72
48527;BME280;34317;51.660;5.824;2024-01-06T08:06:33;100832.53;;;7.19;64.15
48527;BME280;34317;51.660;5.824;2024-01-06T08:09:01;100831.69;;;7.19;63.93
48527;BME280;34317;51.660;5.824;2024-01-06T08:11:30;100836.97;;;7.17;63.98
48527;BME280;34317;51.660;5.824;2024-01-06T08:13:57;100848.44;;;7.16;63.84
48527;BME280;34317;51.660;5.824;2024-01-06T08:16:26;100848.44;;;7.16;63.84
48527;BME280;34317;51.660;5.824;2024-01-06T08:18:53;100851.97;;;7.15;64.08
48527;BME280;34317;51.660;5.824;2024-01-06T08:21:21;100853.78;;;7.13;63.94
48527;BME280;34317;51.660;5.824;2024-01-06T08:23:48;100867.91;;;7.12;63.67
48527;BME280;34317;51.660;5.824;2024-01-06T08:26:16;100864.31;;;7.13;64.03
48527;BME280;34317;51.660;5.824;2024-01-06T08:28:43;100866.97;;;7.13;64.11
48527;BME280;34317;51.660;5.824;2024-01-06T08:31:10;100869.59;;;7.13;63.99
48527;BME280;34317;51.660;5.824;2024-01-06T08:33:38;100879.31;;;7.11;63.96
48527;BME280;34317;51.660;5.824;2024-01-06T08:36:06;100883.69;;;7.12;64.08
48527;BME280;34317;51.660;5.824;2024-01-06T08:38:34;100895.94;;;7.13;64.20
48527;BME280;34317;51.660;5.824;2024-01-06T08:41:01;100897.69;;;7.14;63.85
48527;BME280;34317;51.660;5.824;2024-01-06T08:43:29;100900.31;;;7.14;64.05
48527;BME280;34317;51.660;5.824;2024-01-06T08:45:56;100901.19;;;7.13;64.15
48527;BME280;34317;51.660;5.824;2024-01-06T08:48:24;100909.91;;;7.15;64.38
48527;BME280;34317;51.660;5.824;2024-01-06T08:50:51;100911.66;;;7.16;64.23
48527;BME280;34317;51.660;5.824;2024-01-06T08:53:18;100920.38;;;7.18;64.08
48527;BME280;34317;51.660;5.824;2024-01-06T08:55:46;100918.63;;;7.17;63.81
48527;BME280;34317;51.660;5.824;2024-01-06T08:58:13;100918.63;;;7.17;63.95
48527;BME280;34317;51.660;5.824;2024-01-06T09:00:41;100917.78;;;7.17;63.97
48527;BME280;34317;51.660;5.824;2024-01-06T09:03:09;100918.63;;;7.17;63.70
48527;BME280;34317;51.660;5.824;2024-01-06T09:05:37;100922.19;;;7.16;63.84
48527;BME280;34317;51.660;5.824;2024-01-06T09:08:05;100930.09;;;7.16;63.84
48527;BME280;34317;51.660;5.824;2024-01-06T09:10:32;100925.72;;;7.15;63.89
48527;BME280;34317;51.660;5.824;2024-01-06T09:12:59;100928.41;;;7.14;63.94
48527;BME280;34317;51.660;5.824;2024-01-06T09:15:28;100939.81;;;7.14;63.92
48527;BME280;34317;51.660;5.824;2024-01-06T09:17:56;100948.63;;;7.13;63.78
48527;BME280;34317;51.660;5.824;2024-01-06T09:20:23;100951.25;;;7.13;63.90
48527;BME280;34317;51.660;5.824;2024-01-06T09:22:50;100959.06;;;7.16;63.87
48527;BME280;34317;51.660;5.824;2024-01-06T09:25:18;100954.66;;;7.17;63.90
48527;BME280;34317;51.660;5.824;2024-01-06T09:27:47;100964.34;;;7.16;63.77
48527;BME280;34317;51.660;5.824;2024-01-06T09:30:14;100962.59;;;7.15;63.67
48527;BME280;34317;51.660;5.824;2024-01-06T09:32:41;100974.88;;;7.16;63.86
48527;BME280;34317;51.660;5.824;2024-01-06T09:35:09;100971.31;;;7.17;63.93
48527;BME280;34317;51.660;5.824;2024-01-06T09:37:36;100978.31;;;7.18;63.72
48527;BME280;34317;51.660;5.824;2024-01-06T09:40:04;100983.59;;;7.18;63.89
48527;BME280;34317;51.660;5.824;2024-01-06T09:42:31;100994.06;;;7.21;63.85
48527;BME280;34317;51.660;5.824;2024-01-06T09:44:59;100992.22;;;7.24;63.43
48527;BME280;34317;51.660;5.824;2024-01-06T09:47:28;100990.41;;;7.26;63.97
48527;BME280;34317;51.660;5.824;2024-01-06T09:49:57;100995.69;;;7.26;63.57
48527;BME280;34317;51.660;5.824;2024-01-06T09:52:28;101007.94;;;7.27;63.63
48527;BME280;34317;51.660;5.824;2024-01-06T09:55:00;101013.19;;;7.27;63.52
48527;BME280;34317;51.660;5.824;2024-01-06T09:57:29;101012.34;;;7.26;63.56
48527;BME280;34317;51.660;5.824;2024-01-06T09:59:57;101020.28;;;7.25;63.35
48527;BME280;34317;51.660;5.824;2024-01-06T10:02:25;101016.84;;;7.22;63.71
48527;BME280;34317;51.660;5.824;2024-01-06T10:04:52;101015.97;;;7.22;63.79
48527;BME280;34317;51.660;5.824;2024-01-06T10:07:20;101020.41;;;7.21;63.48
48527;BME280;34317;51.660;5.824;2024-01-06T10:09:47;101022.09;;;7.22;63.54
48527;BME280;34317;51.660;5.824;2024-01-06T10:12:15;101026.50;;;7.22;63.86
48527;BME280;34317;51.660;5.824;2024-01-06T10:14:43;101026.56;;;7.20;63.57
48527;BME280;34317;51.660;5.824;2024-01-06T10:17:11;101029.19;;;7.20;63.49
48527;BME280;34317;51.660;5.824;2024-01-06T10:19:38;101038.84;;;7.21;63.63
48527;BME280;34317;51.660;5.824;2024-01-06T10:22:06;101041.47;;;7.21;63.92
48527;BME280;34317;51.660;5.824;2024-01-06T10:24:37;101032.72;;;7.19;63.59
48527;BME280;34317;51.660;5.824;2024-01-06T10:27:05;101036.19;;;7.21;63.42
48527;BME280;34317;51.660;5.824;2024-01-06T10:29:32;101035.34;;;7.19;63.63
48527;BME280;34317;51.660;5.824;2024-01-06T10:31:59;101034.47;;;7.20;63.72
48527;BME280;34317;51.660;5.824;2024-01-06T10:34:28;101038.88;;;7.20;63.74
48527;BME280;34317;51.660;5.824;2024-01-06T10:36:56;101044.13;;;7.20;63.31
48527;BME280;34317;51.660;5.824;2024-01-06T10:39:24;101043.25;;;7.19;63.55
48527;BME280;34317;51.660;5.824;2024-01-06T10:41:52;101044.16;;;7.18;63.85
48527;BME280;34317;51.660;5.824;2024-01-06T10:44:21;101041.53;;;7.18;63.61
48527;BME280;34317;51.660;5.824;2024-01-06T10:46:49;101048.50;;;7.19;63.54
48527;BME280;34317;51.660;5.824;2024-01-06T10:49:17;101049.41;;;7.20;63.73
48527;BME280;34317;51.660;5.824;2024-01-06T10:51:48;101048.50;;;7.19;64.05
48527;BME280;34317;51.660;5.824;2024-01-06T10:54:17;101055.53;;;7.20;63.71
48527;BME280;34317;51.660;5.824;2024-01-06T10:56:47;101057.34;;;7.18;63.61
48527;BME280;34317;51.660;5.824;2024-01-06T10:59:15;101058.22;;;7.17;63.61
48527;BME280;34317;51.660;5.824;2024-01-06T11:01:43;101063.50;;;7.17;63.50
48527;BME280;34317;51.660;5.824;2024-01-06T11:04:11;101058.19;;;7.19;63.82
48527;BME280;34317;51.660;5.824;2024-01-06T11:06:41;101064.31;;;7.19;63.67
48527;BME280;34317;51.660;5.824;2024-01-06T11:11:37;101067.88;;;7.18;63.40
48527;BME280;34317;51.660;5.824;2024-01-06T11:14:25;101069.69;;;7.16;63.34
48527;BME280;34317;51.660;5.824;2024-01-06T11:16:54;101067.94;;;7.15;63.50
48527;BME280;34317;51.660;5.824;2024-01-06T11:22:30;101070.63;;;7.14;63.65
48527;BME280;34317;51.660;5.824;2024-01-06T11:25:07;101071.50;;;7.14;63.45
48527;BME280;34317;51.660;5.824;2024-01-06T11:27:35;101077.59;;;7.16;63.78
48527;BME280;34317;51.660;5.824;2024-01-06T11:30:04;101076.66;;;7.17;63.66
48527;BME280;34317;51.660;5.824;2024-01-06T11:32:36;101080.13;;;7.19;63.27
48527;BME280;34317;51.660;5.824;2024-01-06T11:35:09;101078.41;;;7.18;63.32
48527;BME280;34317;51.660;5.824;2024-01-06T11:37:51;101079.31;;;7.17;63.46
48527;BME280;34317;51.660;5.824;2024-01-06T11:40:23;101078.41;;;7.18;63.26
48527;BME280;34317;51.660;5.824;2024-01-06T11:45:28;101083.75;;;7.15;63.50
48527;BME280;34317;51.660;5.824;2024-01-06T11:47:58;101082.03;;;7.14;63.56
48527;BME280;34317;51.660;5.824;2024-01-06T11:50:31;101087.38;;;7.11;63.02
48527;BME280;34317;51.660;5.824;2024-01-06T11:53:04;101083.94;;;7.09;63.47
48527;BME280;34317;51.660;5.824;2024-01-06T11:55:32;101087.44;;;7.08;63.22
48527;BME280;34317;51.660;5.824;2024-01-06T11:58:01;101085.75;;;7.07;63.57
48527;BME280;34317;51.660;5.824;2024-01-06T12:00:33;101085.75;;;7.07;63.56
48527;BME280;34317;51.660;5.824;2024-01-06T12:03:02;101087.44;;;7.08;63.30
48527;BME280;34317;51.660;5.824;2024-01-06T12:05:29;101088.38;;;7.07;63.37
48527;BME280;34317;51.660;5.824;2024-01-06T12:08:02;101085.75;;;7.07;63.22
48527;BME280;34317;51.660;5.824;2024-01-06T12:10:34;101087.44;;;7.08;63.50
48527;BME280;34317;51.660;5.824;2024-01-06T12:13:03;101084.81;;;7.08;63.22
48527;BME280;34317;51.660;5.824;2024-01-06T12:15:32;101083.94;;;7.09;63.25
48527;BME280;34317;51.660;5.824;2024-01-06T12:18:03;101077.81;;;7.09;63.37
48527;BME280;34317;51.660;5.824;2024-01-06T12:20:31;101084.75;;;7.11;63.36
48527;BME280;34317;51.660;5.824;2024-01-06T12:22:59;101087.38;;;7.11;63.40
48527;BME280;34317;51.660;5.824;2024-01-06T12:25:27;101090.84;;;7.13;63.09
48527;BME280;34317;51.660;5.824;2024-01-06T12:27:56;101094.41;;;7.12;63.33
48527;BME280;34317;51.660;5.824;2024-01-06T12:30:24;101083.06;;;7.09;63.25
48527;BME280;34317;51.660;5.824;2024-01-06T12:32:53;101083.09;;;7.07;62.96
48527;BME280;34317;51.660;5.824;2024-01-06T12:35:23;101084.00;;;7.06;63.38
48527;BME280;34317;51.660;5.824;2024-01-06T12:37:59;101086.72;;;7.03;63.43
48527;BME280;34317;51.660;5.824;2024-01-06T12:40:37;101077.09;;;7.02;63.33
48527;BME280;34317;51.660;5.824;2024-01-06T12:43:32;101085.97;;;6.98;63.20
48527;BME280;34317;51.660;5.824;2024-01-06T12:46:07;101086.91;;;6.97;62.91
48527;BME280;34317;51.660;5.824;2024-01-06T12:48:35;101090.44;;;6.96;63.48
48527;BME280;34317;51.660;5.824;2024-01-06T12:51:04;101100.06;;;6.97;63.06
48527;BME280;34317;51.660;5.824;2024-01-06T12:53:40;101092.16;;;6.97;63.51
48527;BME280;34317;51.660;5.824;2024-01-06T12:56:08;101096.56;;;6.96;63.34
48527;BME280;34317;51.660;5.824;2024-01-06T12:58:35;101100.06;;;6.97;63.33
48527;BME280;34317;51.660;5.824;2024-01-06T13:01:02;101101.78;;;6.98;63.38
48527;BME280;34317;51.660;5.824;2024-01-06T13:03:31;101108.78;;;6.99;63.29
48527;BME280;34317;51.660;5.824;2024-01-06T13:06:00;101101.78;;;6.98;63.16
48527;BME280;34317;51.660;5.824;2024-01-06T13:08:30;101100.06;;;6.97;63.39
48527;BME280;34317;51.660;5.824;2024-01-06T13:10:58;101114.06;;;6.99;63.69
48527;BME280;34317;51.660;5.824;2024-01-06T13:13:25;101107.91;;;6.98;63.39